Time;durP1;ratioP1;P1;durP2;ratioP2;P2;SDS_P1;SDS_P2;PMS_P1;PMS_P2;Temp;Humidity;BMP_temperature;BMP_pressure;BME280_temperature;BME280_humidity;BME280_pressure;Samples;Min_cycle;Max_cycle;Signal;HPM_P1;HPM_P2
2021/03/28 00:02:19;;;;;;;12.00;2.63;;;6.60;91.70;;;;;;4735107;30;20050;-82
2021/03/28 00:04:52;;;;;;;11.97;2.93;;;6.70;91.50;;;;;;4774094;30;20594;-78
2021/03/28 00:07:22;;;;;;;14.43;2.60;;;6.60;91.60;;;;;;4762399;30;20520;-75
2021/03/28 00:09:54;;;;;;;14.63;2.90;;;6.60;91.50;;;;;;4760509;30;20047;-77
2021/03/28 00:12:30;;;;;;;8.17;2.00;;;6.60;91.30;;;;;;4755305;30;20040;-78
2021/03/28 00:15:02;;;;;;;9.88;2.85;;;6.60;91.40;;;;;;4746595;30;20488;-78
2021/03/28 00:17:41;;;;;;;16.85;2.42;;;6.50;91.50;;;;;;4759929;30;20055;-78
2021/03/28 00:20:17;;;;;;;9.17;1.73;;;6.50;91.50;;;;;;4757922;30;21438;-79
2021/03/28 00:22:48;;;;;;;8.90;1.80;;;6.40;91.70;;;;;;4733718;30;20036;-79
2021/03/28 00:25:16;;;;;;;11.27;1.90;;;6.40;91.70;;;;;;4756526;30;20036;-79
2021/03/28 00:27:49;;;;;;;12.23;2.30;;;6.40;91.80;;;;;;4774261;29;20048;-79
2021/03/28 00:30:27;;;;;;;14.38;2.22;;;6.40;91.80;;;;;;4773719;29;20036;-79
2021/03/28 00:33:08;;;;;;;10.90;2.70;;;6.50;91.90;;;;;;4757906;30;20051;-79
2021/03/28 00:35:50;;;;;;;8.63;1.47;;;6.50;91.90;;;;;;4761054;30;20416;-79
2021/03/28 00:38:43;;;;;;;11.23;2.00;;;6.40;91.80;;;;;;4758887;30;20040;-80
2021/03/28 00:41:19;;;;;;;11.40;2.20;;;6.40;91.90;;;;;;4754652;29;20052;-78
2021/03/28 00:43:55;;;;;;;12.07;2.50;;;6.40;91.90;;;;;;4757852;30;20044;-77
2021/03/28 00:46:47;;;;;;;8.90;1.90;;;6.30;92.00;;;;;;4746615;30;20060;-78
2021/03/28 00:49:24;;;;;;;10.70;1.75;;;6.30;92.00;;;;;;4743088;30;20059;-78
2021/03/28 00:52:00;;;;;;;12.32;2.00;;;6.30;92.10;;;;;;4759619;30;20528;-78
2021/03/28 00:54:43;;;;;;;12.10;2.60;;;6.40;92.00;;;;;;4773174;29;20032;-78
2021/03/28 00:57:26;;;;;;;14.80;2.33;;;6.30;92.10;;;;;;4756534;29;20117;-78
2021/03/28 01:00:11;;;;;;;11.05;2.22;;;6.30;92.10;;;;;;4775078;29;20044;-77
2021/03/28 01:03:10;;;;;;;13.43;2.50;;;6.40;92.20;;;;;;4774377;30;20058;-81
2021/03/28 01:05:53;;;;;;;12.40;2.07;;;6.30;92.20;;;;;;4752907;30;20316;-82
2021/03/28 01:08:32;;;;;;;11.43;2.90;;;6.40;92.30;;;;;;4760916;30;20518;-82
2021/03/28 01:11:06;;;;;;;18.20;3.60;;;6.40;92.30;;;;;;4777458;30;20081;-82
2021/03/28 01:13:56;;;;;;;14.57;3.30;;;6.40;92.20;;;;;;4762461;29;20511;-81
2021/03/28 01:16:35;;;;;;;15.90;3.38;;;6.40;92.20;;;;;;4762428;30;20058;-82
2021/03/28 01:19:49;;;;;;;13.03;3.20;;;6.50;92.20;;;;;;4762843;30;20062;-82
2021/03/28 01:22:28;;;;;;;16.70;4.10;;;6.50;92.10;;;;;;4760588;30;20910;-82
2021/03/28 01:25:14;;;;;;;22.50;4.50;;;6.60;92.10;;;;;;4770217;29;20051;-81
2021/03/28 01:27:55;;;;;;;18.53;4.20;;;6.60;92.10;;;;;;4750325;30;20499;-82
2021/03/28 01:30:40;;;;;;;15.30;3.30;;;6.60;92.10;;;;;;4764743;30;20050;-82
2021/03/28 01:33:32;;;;;;;15.10;3.40;;;6.60;92.10;;;;;;4770066;30;20047;-81
2021/03/28 01:36:09;;;;;;;16.47;4.00;;;6.60;92.00;;;;;;4748440;30;20059;-82
2021/03/28 01:38:44;;;;;;;15.43;3.80;;;6.60;92.00;;;;;;4781654;30;20043;-82
2021/03/28 01:41:18;;;;;;;14.70;3.73;;;6.60;92.00;;;;;;4766102;30;20047;-82
2021/03/28 01:44:19;;;;;;;13.53;3.37;;;6.50;92.00;;;;;;4763443;30;20052;-82
2021/03/28 01:46:56;;;;;;;14.57;3.93;;;6.50;92.10;;;;;;4770788;30;20055;-82
2021/03/28 01:49:42;;;;;;;11.07;2.77;;;6.40;92.10;;;;;;4771501;30;20055;-82
2021/03/28 01:52:40;;;;;;;17.33;3.70;;;6.40;92.20;;;;;;4746327;30;20175;-82
2021/03/28 01:55:26;;;;;;;12.40;3.33;;;6.30;92.20;;;;;;4771794;30;20054;-82
2021/03/28 01:58:22;;;;;;;11.43;2.10;;;6.30;92.30;;;;;;4767660;30;20062;-82
2021/03/28 02:01:10;;;;;;;14.47;2.90;;;6.30;92.30;;;;;;4766281;30;20052;-82
2021/03/28 02:03:45;;;;;;;9.50;2.28;;;6.30;92.60;;;;;;4772687;30;20051;-82
2021/03/28 02:06:47;;;;;;;10.13;2.20;;;6.30;92.40;;;;;;4787248;30;20064;-81
2021/03/28 02:10:10;;;;;;;13.93;2.05;;;6.30;92.50;;;;;;4764755;30;20052;-81
2021/03/28 02:12:53;;;;;;;11.88;2.20;;;6.30;92.60;;;;;;4724114;30;20068;-81
2021/03/28 02:15:45;;;;;;;10.90;2.07;;;6.30;92.60;;;;;;4698233;30;20056;-81
2021/03/28 02:18:28;;;;;;;7.65;1.85;;;6.30;92.60;;;;;;4760082;30;20594;-82
2021/03/28 02:21:17;;;;;;;11.20;1.98;;;6.30;92.70;;;;;;4766105;30;20043;-82
2021/03/28 02:24:09;;;;;;;11.23;1.67;;;6.40;92.70;;;;;;4763824;30;20063;-81
2021/03/28 02:27:03;;;;;;;7.80;1.60;;;6.30;92.70;;;;;;4763637;29;20048;-81
2021/03/28 02:29:42;;;;;;;12.83;2.00;;;6.40;92.70;;;;;;4762619;30;20047;-82
2021/03/28 02:32:44;;;;;;;9.63;1.40;;;6.40;92.70;;;;;;4778477;30;20552;-82
2021/03/28 02:35:32;;;;;;;7.93;1.10;;;6.40;92.70;;;;;;4764281;30;20945;-82
2021/03/28 02:38:28;;;;;;;15.13;2.35;;;6.40;92.70;;;;;;4766492;30;20396;-81
2021/03/28 02:41:20;;;;;;;9.33;1.50;;;6.40;92.70;;;;;;4765134;30;20496;-81
2021/03/28 02:43:51;;;;;;;7.07;1.30;;;6.40;92.70;;;;;;4763748;30;20052;-82
2021/03/28 02:46:37;;;;;;;11.70;1.63;;;6.40;92.80;;;;;;4750364;30;20036;-82
2021/03/28 02:49:47;;;;;;;8.18;1.25;;;6.40;92.70;;;;;;4764957;30;20043;-82
2021/03/28 02:52:42;;;;;;;9.97;1.47;;;6.40;92.80;;;;;;4761484;30;20059;-82
2021/03/28 02:55:27;;;;;;;9.20;1.15;;;6.40;92.80;;;;;;4762875;30;20036;-82
2021/03/28 02:58:08;;;;;;;10.20;2.17;;;6.40;92.80;;;;;;4779131;30;20040;-81
2021/03/28 03:00:52;;;;;;;13.30;1.40;;;6.40;92.80;;;;;;4764993;29;20054;-82
2021/03/28 03:03:26;;;;;;;12.90;1.77;;;6.40;92.80;;;;;;4767623;30;20047;-82
2021/03/28 03:06:14;;;;;;;7.50;1.27;;;6.50;92.80;;;;;;4749605;30;20066;-82
2021/03/28 03:09:00;;;;;;;8.13;1.30;;;6.50;92.70;;;;;;4778284;30;20055;-82
2021/03/28 03:11:45;;;;;;;9.10;1.37;;;6.50;92.80;;;;;;4763100;30;20059;-82
2021/03/28 03:14:39;;;;;;;13.95;1.40;;;6.50;92.80;;;;;;4755319;30;20051;-81
2021/03/28 03:17:17;;;;;;;11.10;1.60;;;6.50;92.80;;;;;;4758096;30;20056;-82
2021/03/28 03:19:47;;;;;;;13.85;1.85;;;6.50;92.80;;;;;;4765759;29;20500;-81
2021/03/28 03:22:51;;;;;;;10.37;1.00;;;6.50;92.70;;;;;;4764258;29;20060;-81
2021/03/28 03:25:55;;;;;;;9.47;1.47;;;6.50;92.70;;;;;;4763794;30;20059;-82
2021/03/28 03:28:35;;;;;;;9.90;1.60;;;6.50;92.70;;;;;;4764576;30;20048;-81
2021/03/28 03:31:39;;;;;;;7.33;0.90;;;6.50;92.70;;;;;;4748056;30;20052;-82
2021/03/28 03:34:12;;;;;;;10.47;1.30;;;6.50;92.70;;;;;;4763137;30;20047;-81
2021/03/28 03:37:10;;;;;;;13.95;1.60;;;6.50;92.80;;;;;;4749106;30;20043;-82
2021/03/28 03:40:01;;;;;;;10.37;1.73;;;6.50;92.80;;;;;;4757790;30;20052;-81
2021/03/28 03:42:48;;;;;;;13.73;1.53;;;6.50;92.80;;;;;;4759960;30;20048;-81
2021/03/28 03:45:15;;;;;;;13.17;1.47;;;6.50;92.80;;;;;;4763950;30;20050;-82
2021/03/28 03:47:56;;;;;;;8.57;1.10;;;6.50;92.80;;;;;;4763188;30;20051;-82
2021/03/28 03:50:46;;;;;;;12.37;1.53;;;6.50;92.80;;;;;;4773246;30;20405;-81
2021/03/28 03:53:39;;;;;;;12.07;2.33;;;6.40;92.80;;;;;;4761236;30;20050;-82
2021/03/28 03:56:27;;;;;;;11.55;1.50;;;6.40;92.80;;;;;;4777009;30;20071;-82
2021/03/28 03:59:15;;;;;;;10.03;2.00;;;6.40;92.90;;;;;;4763634;30;20055;-82
2021/03/28 04:02:31;;;;;;;16.53;2.20;;;6.50;92.90;;;;;;4760773;30;20078;-82
2021/03/28 04:05:08;;;;;;;8.43;1.30;;;6.50;92.90;;;;;;4713766;30;20060;-81
2021/03/28 04:07:53;;;;;;;11.50;1.40;;;6.50;93.10;;;;;;4764275;30;20055;-81
2021/03/28 04:10:31;;;;;;;7.37;0.90;;;6.60;92.90;;;;;;4763455;30;20071;-81
2021/03/28 04:13:25;;;;;;;10.17;1.03;;;6.60;92.80;;;;;;4761583;30;20055;-82
2021/03/28 04:16:01;;;;;;;10.20;1.00;;;6.70;92.80;;;;;;4764485;30;20054;-81
2021/03/28 04:18:47;;;;;;;8.93;1.30;;;6.70;92.70;;;;;;4759676;30;20043;-82
2021/03/28 04:21:51;;;;;;;4.43;1.00;;;6.80;92.70;;;;;;4762478;30;20496;-81
2021/03/28 04:24:43;;;;;;;10.00;1.13;;;6.80;92.70;;;;;;4763038;30;20052;-81
2021/03/28 04:27:23;;;;;;;8.25;1.13;;;6.80;92.60;;;;;;4763173;30;20043;-81
2021/03/28 04:29:51;;;;;;;9.47;1.17;;;6.80;92.80;;;;;;4764512;30;20433;-81
2021/03/28 04:32:38;;;;;;;10.67;1.70;;;6.80;92.90;;;;;;4762412;30;20051;-81
2021/03/28 04:35:19;;;;;;;7.90;1.10;;;6.80;92.50;;;;;;4773669;29;20051;-81
2021/03/28 04:37:59;;;;;;;13.93;1.67;;;6.90;92.60;;;;;;4764719;29;20051;-81
2021/03/28 04:40:30;;;;;;;6.60;1.30;;;6.90;92.50;;;;;;4776209;30;20041;-79
2021/03/28 04:43:34;;;;;;;12.18;1.63;;;6.90;92.50;;;;;;4759927;30;20048;-84
2021/03/28 04:46:24;;;;;;;11.50;1.53;;;6.90;92.40;;;;;;4752990;30;20054;-83
2021/03/28 04:49:17;;;;;;;10.17;1.10;;;6.90;92.40;;;;;;4764443;29;20503;-83
2021/03/28 04:52:12;;;;;;;9.73;1.23;;;7.00;92.40;;;;;;4757088;30;20070;-82
2021/03/28 04:55:15;;;;;;;10.43;2.00;;;6.90;92.40;;;;;;4759592;30;20055;-83
2021/03/28 04:58:00;;;;;;;5.53;1.30;;;6.90;92.40;;;;;;4776554;30;20043;-82
2021/03/28 05:01:05;;;;;;;9.95;1.40;;;7.00;92.30;;;;;;4762168;30;20043;-83
2021/03/28 05:03:53;;;;;;;10.60;1.48;;;7.00;92.30;;;;;;4744244;30;20048;-81
2021/03/28 05:06:38;;;;;;;8.90;1.60;;;6.90;92.30;;;;;;4763618;30;20054;-81
2021/03/28 05:09:38;;;;;;;9.50;2.10;;;6.90;92.30;;;;;;4762924;30;20052;-82
2021/03/28 05:12:08;;;;;;;10.13;3.03;;;6.90;92.30;;;;;;4752088;30;20424;-82
2021/03/28 05:14:52;;;;;;;8.77;2.45;;;6.90;92.30;;;;;;4763691;30;20397;-83
2021/03/28 05:17:46;;;;;;;15.82;2.72;;;6.90;92.50;;;;;;4747742;30;20395;-82
2021/03/28 05:20:26;;;;;;;13.88;3.03;;;6.90;92.30;;;;;;4740208;30;20515;-82
2021/03/28 05:23:05;;;;;;;10.53;1.80;;;6.90;92.30;;;;;;4775483;30;20051;-81
2021/03/28 05:26:08;;;;;;;9.68;1.67;;;6.90;92.30;;;;;;4753345;30;20074;-82
2021/03/28 05:28:47;;;;;;;10.25;2.78;;;6.90;92.30;;;;;;4762314;30;20050;-81
2021/03/28 05:31:29;;;;;;;10.63;1.90;;;6.90;92.30;;;;;;4776290;30;20055;-81
2021/03/28 05:33:55;;;;;;;12.73;2.03;;;7.00;92.30;;;;;;4762026;30;20404;-81
2021/03/28 05:37:11;;;;;;;10.60;1.80;;;7.00;92.20;;;;;;4762766;30;20495;-81
2021/03/28 05:40:03;;;;;;;12.75;2.35;;;7.10;92.20;;;;;;4757121;30;20075;-81
2021/03/28 05:42:33;;;;;;;;;;;7.10;92.20;;;;;;4747953;30;20051;-81
2021/03/28 05:45:30;;;;;;;8.82;1.45;;;7.10;92.20;;;;;;4762487;30;19918;-81
2021/03/28 05:48:19;;;;;;;10.93;1.55;;;7.10;92.20;;;;;;4762977;30;20043;-81
2021/03/28 05:51:05;;;;;;;6.53;1.00;;;7.10;92.40;;;;;;4744936;30;20407;-81
2021/03/28 05:54:00;;;;;;;9.43;1.52;;;7.10;92.20;;;;;;4746351;30;20040;-81
2021/03/28 05:57:04;;;;;;;9.10;1.20;;;7.20;92.10;;;;;;4777130;29;20044;-81
2021/03/28 05:59:53;;;;;;;8.18;1.17;;;7.20;92.10;;;;;;4764134;30;20059;-81
2021/03/28 06:02:50;;;;;;;6.07;1.00;;;7.30;92.10;;;;;;4744008;30;20412;-81
2021/03/28 06:05:37;;;;;;;8.35;1.00;;;7.40;92.00;;;;;;4747654;30;20047;-81
2021/03/28 06:08:38;;;;;;;11.38;1.67;;;7.40;91.90;;;;;;4761738;30;20055;-82
2021/03/28 06:11:27;;;;;;;8.52;1.20;;;7.50;91.90;;;;;;4751813;30;20411;-80
2021/03/28 06:14:50;;;;;;;6.72;1.13;;;7.60;91.90;;;;;;4767447;30;20411;-81
2021/03/28 06:17:53;;;;;;;9.32;1.05;;;7.60;91.80;;;;;;4749595;30;20052;-81
2021/03/28 06:20:49;;;;;;;7.47;0.98;;;7.70;91.80;;;;;;4746966;30;20479;-81
2021/03/28 06:23:34;;;;;;;11.50;1.30;;;7.80;91.70;;;;;;4761732;30;20040;-81
2021/03/28 06:26:22;;;;;;;9.93;1.27;;;7.80;91.60;;;;;;4764521;30;20480;-81
2021/03/28 06:29:45;;;;;;;7.68;1.05;;;7.90;91.50;;;;;;4766293;30;20523;-81
2021/03/28 06:32:33;;;;;;;8.02;1.13;;;7.90;91.80;;;;;;4717125;30;20075;-81
2021/03/28 06:35:18;;;;;;;8.93;1.00;;;8.00;91.40;;;;;;4744446;30;20048;-81
2021/03/28 06:38:22;;;;;;;4.43;0.82;;;8.00;91.40;;;;;;4760003;30;20052;-81
2021/03/28 06:41:11;;;;;;;6.70;1.00;;;8.10;91.20;;;;;;4749599;30;20075;-81
2021/03/28 06:43:54;;;;;;;9.82;1.20;;;8.10;91.10;;;;;;4749511;30;20052;-81
2021/03/28 06:46:36;;;;;;;6.93;1.40;;;8.20;91.00;;;;;;4756269;30;20062;-81
2021/03/28 06:49:32;;;;;;;13.10;1.63;;;8.30;90.90;;;;;;4765492;29;20051;-80
2021/03/28 06:52:38;;;;;;;7.25;1.10;;;8.40;90.60;;;;;;4760897;30;20044;-81
2021/03/28 06:55:56;;;;;;;8.15;1.55;;;8.40;90.60;;;;;;4767020;29;20043;-80
2021/03/28 06:58:38;;;;;;;11.32;1.48;;;8.50;90.50;;;;;;4751373;30;20058;-80
2021/03/28 07:01:23;;;;;;;5.72;0.95;;;8.50;90.30;;;;;;4749804;30;20043;-81
2021/03/28 07:04:18;;;;;;;6.80;1.23;;;8.50;90.20;;;;;;4748719;30;20047;-80
2021/03/28 07:07:12;;;;;;;8.05;1.33;;;8.50;90.10;;;;;;4764176;30;20393;-80
2021/03/28 07:09:50;;;;;;;13.52;2.03;;;8.60;90.00;;;;;;4749700;30;20048;-80
2021/03/28 07:12:34;;;;;;;6.85;1.02;;;8.70;89.90;;;;;;4763366;30;20059;-80
2021/03/28 07:15:36;;;;;;;4.72;1.02;;;8.80;89.80;;;;;;4776708;30;20517;-80
2021/03/28 07:18:02;;;;;;;8.30;1.65;;;9.00;89.60;;;;;;4752187;30;20048;-80
2021/03/28 07:20:46;;;;;;;6.45;1.20;;;9.10;89.10;;;;;;4764231;30;20054;-81
2021/03/28 07:23:28;;;;;;;12.13;1.88;;;9.30;88.50;;;;;;4762378;30;20054;-80
2021/03/28 07:25:55;;;;;;;7.63;1.33;;;9.40;87.80;;;;;;4765378;30;20046;-81
2021/03/28 07:28:46;;;;;;;11.77;2.08;;;9.40;87.60;;;;;;4749785;30;20051;-80
2021/03/28 07:31:33;;;;;;;8.70;1.40;;;9.50;87.10;;;;;;4769580;30;20047;-81
2021/03/28 07:34:25;;;;;;;7.03;1.30;;;9.50;87.00;;;;;;4775746;29;20044;-81
2021/03/28 07:37:28;;;;;;;7.63;1.25;;;9.60;87.10;;;;;;4763080;30;20062;-79
2021/03/28 07:40:21;;;;;;;11.27;1.63;;;9.70;86.90;;;;;;4748869;30;20048;-80
2021/03/28 07:42:48;;;;;;;;;;;9.90;86.50;;;;;;4762943;30;20054;-80
2021/03/28 07:45:31;;;;;;;6.28;1.63;;;10.00;86.10;;;;;;4744712;30;20285;-80
2021/03/28 07:48:34;;;;;;;7.90;1.05;;;10.10;85.70;;;;;;4761870;30;20040;-80
2021/03/28 07:51:32;;;;;;;11.50;1.45;;;10.10;85.40;;;;;;4764491;30;20036;-80
2021/03/28 07:54:21;;;;;;;10.38;1.05;;;10.30;85.10;;;;;;4762210;30;20059;-80
2021/03/28 07:57:21;;;;;;;12.63;1.98;;;10.50;85.00;;;;;;4777678;30;20052;-80
2021/03/28 07:59:59;;;;;;;11.15;1.30;;;10.60;85.00;;;;;;4737984;30;20044;-80
2021/03/28 08:03:11;;;;;;;5.57;1.08;;;10.80;83.90;;;;;;4776966;30;20180;-80
2021/03/28 08:06:03;;;;;;;10.77;1.80;;;10.90;83.60;;;;;;4758201;30;20052;-80
2021/03/28 08:08:59;;;;;;;7.57;1.55;;;10.90;82.70;;;;;;4761975;30;20070;-79
2021/03/28 08:11:34;;;;;;;8.27;1.65;;;10.90;82.70;;;;;;4767984;30;20404;-80
2021/03/28 08:14:19;;;;;;;10.73;1.50;;;10.80;82.80;;;;;;4764621;29;20060;-80
2021/03/28 08:17:23;;;;;;;5.25;1.10;;;10.80;82.90;;;;;;4747407;30;20043;-80
2021/03/28 08:20:08;;;;;;;6.88;1.45;;;10.90;83.30;;;;;;4762050;30;20047;-80
2021/03/28 08:22:51;;;;;;;8.60;1.55;;;11.10;83.00;;;;;;4746766;30;20039;-80
2021/03/28 08:25:55;;;;;;;9.10;1.83;;;11.30;82.50;;;;;;4777386;29;20415;-80
2021/03/28 08:28:43;;;;;;;9.02;1.65;;;11.40;81.80;;;;;;4763303;30;20393;-80
2021/03/28 08:31:20;;;;;;;7.28;1.73;;;11.40;81.60;;;;;;4747697;30;20048;-79
2021/03/28 08:34:24;;;;;;;5.80;1.05;;;11.50;81.60;;;;;;4747125;30;20044;-80
2021/03/28 08:37:20;;;;;;;13.63;2.45;;;11.60;81.50;;;;;;4747429;30;20040;-80
2021/03/28 08:39:59;;;;;;;9.02;1.67;;;11.70;80.80;;;;;;4747309;30;20047;-80
2021/03/28 08:42:47;;;;;;;7.03;1.35;;;11.80;80.70;;;;;;4762457;30;20047;-80
2021/03/28 08:45:17;;;;;;;11.65;1.40;;;12.00;80.20;;;;;;4761695;30;20404;-81
2021/03/28 08:48:34;;;;;;;10.80;2.42;;;12.10;79.80;;;;;;4762417;30;20071;-80
2021/03/28 08:51:26;;;;;;;7.97;1.55;;;12.20;79.50;;;;;;4776236;30;20047;-80
2021/03/28 08:54:05;;;;;;;6.10;1.25;;;12.40;79.10;;;;;;4770569;30;20296;-81
2021/03/28 08:56:41;;;;;;;10.95;1.20;;;12.70;79.00;;;;;;4778614;29;20068;-78
2021/03/28 08:59:08;;;;;;;8.93;1.40;;;12.90;78.10;;;;;;4763171;30;20046;-82
2021/03/28 09:02:09;;;;;;;8.88;1.58;;;13.10;76.10;;;;;;4761662;30;20039;-80
2021/03/28 09:04:39;;;;;;;7.95;2.70;;;13.00;76.00;;;;;;4748681;30;20127;-82
2021/03/28 09:07:19;;;;;;;9.07;2.13;;;13.10;76.30;;;;;;4763557;30;20062;-81
2021/03/28 09:10:23;;;;;;;10.63;1.52;;;13.10;76.10;;;;;;4760943;30;20052;-80
2021/03/28 09:13:13;;;;;;;8.60;1.42;;;13.00;75.70;;;;;;4755302;30;20048;-80
2021/03/28 09:16:07;;;;;;;8.55;1.60;;;12.90;75.80;;;;;;4774993;30;20063;-79
2021/03/28 09:18:55;;;;;;;4.93;1.20;;;13.00;76.40;;;;;;4761559;30;20056;-79
2021/03/28 09:21:29;;;;;;;14.65;2.55;;;13.20;76.40;;;;;;4763263;30;20052;-80
2021/03/28 09:23:56;;;;;;;6.68;1.30;;;13.50;74.90;;;;;;4761613;30;20055;-79
2021/03/28 09:26:35;;;;;;;11.30;1.35;;;13.60;74.00;;;;;;4754277;30;20078;-78
2021/03/28 09:29:33;;;;;;;6.35;1.20;;;13.80;72.50;;;;;;4766172;30;20047;-78
2021/03/28 09:32:02;;;;;;;9.02;1.70;;;13.80;71.70;;;;;;4761724;30;20043;-79
2021/03/28 09:35:08;;;;;;;9.93;1.25;;;13.80;70.10;;;;;;4777657;29;20412;-80
2021/03/28 09:38:12;;;;;;;10.73;1.70;;;13.80;70.00;;;;;;4754384;30;20055;-80
2021/03/28 09:40:50;;;;;;;4.57;0.80;;;13.70;69.50;;;;;;4761296;30;20131;-81
2021/03/28 09:43:33;;;;;;;9.70;1.73;;;13.80;70.10;;;;;;4762421;30;20066;-81
2021/03/28 09:46:24;;;;;;;9.80;1.45;;;13.90;70.20;;;;;;4763084;30;20052;-79
2021/03/28 09:49:04;;;;;;;9.10;1.33;;;14.00;69.30;;;;;;4764217;30;20063;-78
2021/03/28 09:51:45;;;;;;;10.18;1.70;;;14.00;68.70;;;;;;4770989;30;20840;-78
2021/03/28 09:54:27;;;;;;;9.32;1.40;;;14.10;68.30;;;;;;4777363;30;20046;-79
2021/03/28 09:57:04;;;;;;;9.88;1.55;;;14.20;68.20;;;;;;4764254;30;20051;-80
2021/03/28 10:00:09;;;;;;;5.88;1.23;;;14.30;67.60;;;;;;4763893;30;20035;-73
2021/03/28 10:03:05;;;;;;;11.98;1.67;;;14.30;66.00;;;;;;4762209;30;20048;-75
2021/03/28 10:05:34;;;;;;;18.58;6.40;;;14.40;66.00;;;;;;4747034;30;20047;-75
2021/03/28 10:08:23;;;;;;;11.23;2.53;;;14.30;65.40;;;;;;4749946;30;20059;-76
2021/03/28 10:10:59;;;;;;;8.10;2.20;;;14.20;64.80;;;;;;4763519;30;20496;-75
2021/03/28 10:14:07;;;;;;;7.05;0.93;;;14.20;65.30;;;;;;4761420;30;20059;-75
2021/03/28 10:16:45;;;;;;;6.60;1.10;;;14.20;65.20;;;;;;4758518;30;20055;-74
2021/03/28 10:19:32;;;;;;;6.40;0.90;;;14.20;63.90;;;;;;4763639;30;20055;-76
2021/03/28 10:22:05;;;;;;;7.70;1.00;;;14.30;64.20;;;;;;4761051;30;20028;-74
2021/03/28 10:25:06;;;;;;;7.90;1.38;;;14.50;63.40;;;;;;4761122;30;20048;-74
2021/03/28 10:27:57;;;;;;;9.07;0.95;;;14.70;61.80;;;;;;4762854;30;20081;-74
2021/03/28 10:30:32;;;;;;;5.97;0.90;;;14.90;60.90;;;;;;4760049;29;20032;-72
2021/03/28 10:33:21;;;;;;;5.18;0.80;;;15.00;60.70;;;;;;4761777;30;20052;-77
2021/03/28 10:36:19;;;;;;;6.10;1.23;;;15.00;60.60;;;;;;4763783;30;20052;-75
2021/03/28 10:38:57;;;;;;;11.23;1.38;;;15.00;59.80;;;;;;4747219;30;20912;-76
2021/03/28 10:41:42;;;;;;;17.20;8.38;;;15.00;60.20;;;;;;4761676;30;20488;-78
2021/03/28 10:44:21;;;;;;;6.50;1.08;;;15.10;60.20;;;;;;4762368;30;20059;-80
2021/03/28 10:47:09;;;;;;;5.30;0.80;;;15.10;59.80;;;;;;4748904;30;20173;-77
2021/03/28 10:49:54;;;;;;;6.45;0.80;;;15.10;57.10;;;;;;4762321;30;20504;-80
2021/03/28 10:52:51;;;;;;;6.72;0.90;;;15.00;56.80;;;;;;4776829;30;20047;-77
2021/03/28 10:55:23;;;;;;;9.55;1.20;;;14.80;57.20;;;;;;4761603;30;20078;-77
2021/03/28 10:58:25;;;;;;;8.35;1.00;;;14.70;58.10;;;;;;4763150;30;20048;-77
2021/03/28 11:01:30;;;;;;;9.40;1.25;;;14.70;59.60;;;;;;4762864;30;20063;-77
2021/03/28 11:03:56;;;;;;;5.90;1.40;;;14.70;60.00;;;;;;4748998;30;20048;-76
2021/03/28 11:06:52;;;;;;;10.30;1.80;;;14.70;59.60;;;;;;4761762;30;20397;-75
2021/03/28 11:09:41;;;;;;;5.15;1.10;;;14.60;60.00;;;;;;4775823;29;20048;-78
2021/03/28 11:12:39;;;;;;;7.07;1.13;;;14.60;60.90;;;;;;4746884;30;20047;-80
2021/03/28 11:15:24;;;;;;;6.70;1.40;;;14.60;61.60;;;;;;4760956;30;20051;-79
2021/03/28 11:18:01;;;;;;;8.23;1.52;;;14.60;62.40;;;;;;4762418;30;20507;-78
2021/03/28 11:21:05;;;;;;;5.57;1.42;;;14.60;62.60;;;;;;4748059;30;20040;-79
2021/03/28 11:24:16;;;;;;;7.50;1.17;;;14.60;63.10;;;;;;4761557;30;20040;-78
2021/03/28 11:27:18;;;;;;;6.80;0.90;;;14.50;62.90;;;;;;4762012;30;20048;-78
2021/03/28 11:30:01;;;;;;;5.40;1.15;;;14.50;63.20;;;;;;4747390;30;20047;-79
2021/03/28 11:32:50;;;;;;;7.40;1.17;;;14.50;62.90;;;;;;4746603;30;20799;-79
2021/03/28 11:35:56;;;;;;;8.93;1.25;;;14.40;63.10;;;;;;4749496;30;20056;-76
2021/03/28 11:38:23;;;;;;;4.40;1.00;;;14.30;63.90;;;;;;4726134;30;20044;-76
2021/03/28 11:40:50;;;;;;;7.63;0.70;;;14.10;65.50;;;;;;4751402;30;20052;-76
2021/03/28 11:43:38;;;;;;;6.82;0.80;;;14.00;66.90;;;;;;4761566;30;20048;-77
2021/03/28 11:46:05;;;;;;;5.28;0.70;;;13.80;67.70;;;;;;4760556;30;20047;-77
2021/03/28 11:48:52;;;;;;;9.77;0.80;;;13.60;68.60;;;;;;4763574;29;20071;-77
2021/03/28 11:51:31;;;;;;;6.88;0.70;;;13.50;69.60;;;;;;4747164;30;20040;-81
2021/03/28 11:54:11;;;;;;;12.90;1.45;;;13.40;70.30;;;;;;4771184;30;20043;-81
2021/03/28 11:56:46;;;;;;;7.68;0.98;;;13.30;70.40;;;;;;4754959;30;20082;-81
2021/03/28 11:59:28;;;;;;;4.07;0.65;;;13.30;70.70;;;;;;4764906;30;20042;-81
2021/03/28 12:02:03;;;;;;;8.07;0.80;;;13.30;71.30;;;;;;4762695;30;20055;-81
2021/03/28 12:04:42;;;;;;;7.18;0.98;;;13.40;71.50;;;;;;4762892;30;20067;-81
2021/03/28 12:07:33;;;;;;;7.07;0.90;;;13.60;71.70;;;;;;4777952;30;20059;-81
2021/03/28 12:10:00;;;;;;;10.70;1.00;;;13.60;71.00;;;;;;4753278;30;20052;-81
2021/03/28 12:12:39;;;;;;;8.77;0.98;;;13.70;70.40;;;;;;4753900;30;20473;-81
2021/03/28 12:15:44;;;;;;;5.72;1.08;;;13.80;69.00;;;;;;4763178;30;20051;-81
2021/03/28 12:18:23;;;;;;;10.63;1.13;;;13.80;68.60;;;;;;4761913;30;20039;-81
2021/03/28 12:20:59;;;;;;;9.63;1.10;;;13.70;68.00;;;;;;4758270;30;20058;-81
2021/03/28 12:23:27;;;;;;;6.10;1.35;;;13.60;67.80;;;;;;4746390;30;20047;-81
2021/03/28 12:26:26;;;;;;;6.28;1.00;;;13.50;68.10;;;;;;4761396;30;20057;-81
2021/03/28 12:28:58;;;;;;;9.68;1.33;;;13.50;68.50;;;;;;4776539;29;20056;-81
2021/03/28 12:31:38;;;;;;;7.90;1.20;;;13.40;68.30;;;;;;4761929;29;20052;-81
2021/03/28 12:34:07;;;;;;;9.02;1.20;;;13.40;68.70;;;;;;4759809;30;20389;-81
2021/03/28 12:36:57;;;;;;;9.35;1.15;;;13.40;68.60;;;;;;4746547;30;20040;-81
2021/03/28 12:39:32;;;;;;;6.95;1.10;;;13.40;68.40;;;;;;4761020;30;20499;-81
2021/03/28 12:42:04;;;;;;;8.52;1.58;;;13.30;68.40;;;;;;4761885;29;20056;-80
2021/03/28 12:44:32;;;;;;;;;;;13.30;68.40;;;;;;4762932;29;20074;-81
2021/03/28 12:47:02;;;;;;;11.35;1.63;;;13.30;68.50;;;;;;4765322;30;19918;-81
2021/03/28 12:49:42;;;;;;;7.90;1.92;;;13.20;68.50;;;;;;4761320;30;20063;-81
2021/03/28 12:52:12;;;;;;;8.82;1.40;;;13.20;68.70;;;;;;4771418;30;20531;-81
2021/03/28 12:54:54;;;;;;;8.77;1.17;;;13.20;69.00;;;;;;4775944;30;20059;-80
2021/03/28 12:57:52;;;;;;;9.88;1.10;;;13.20;69.10;;;;;;4732326;30;21760;-80
2021/03/28 13:00:50;;;;;;;9.98;1.13;;;13.10;69.20;;;;;;4760596;30;20032;-80
2021/03/28 13:03:53;;;;;;;9.18;1.13;;;13.10;68.70;;;;;;4757219;30;20047;-76
2021/03/28 13:06:48;;;;;;;10.38;1.88;;;13.10;68.80;;;;;;4753629;30;20040;-77
2021/03/28 13:09:15;;;;;;;5.78;0.88;;;13.10;68.90;;;;;;4762292;30;20353;-77
2021/03/28 13:11:52;;;;;;;5.82;0.80;;;13.20;68.70;;;;;;4759227;30;20424;-76
2021/03/28 13:14:27;;;;;;;11.05;1.38;;;13.10;68.50;;;;;;4773579;30;20052;-80
2021/03/28 13:17:14;;;;;;;7.13;0.82;;;13.10;68.90;;;;;;4736493;30;20906;-81
2021/03/28 13:19:48;;;;;;;11.05;1.23;;;13.20;69.00;;;;;;4750889;30;20047;-80
2021/03/28 13:22:20;;;;;;;10.20;1.55;;;13.10;69.00;;;;;;4760111;30;20035;-80
2021/03/28 13:24:47;;;;;;;8.20;1.10;;;13.10;69.10;;;;;;4746207;30;20063;-80
2021/03/28 13:27:20;;;;;;;6.63;0.90;;;13.00;69.10;;;;;;4762347;29;20060;-80
2021/03/28 13:29:55;;;;;;;8.98;1.20;;;13.00;69.20;;;;;;4776105;30;20049;-80
2021/03/28 13:32:37;;;;;;;7.50;1.00;;;13.00;69.10;;;;;;4759143;30;20407;-80
2021/03/28 13:35:47;;;;;;;12.60;1.33;;;12.90;69.00;;;;;;4767455;30;20054;-80
2021/03/28 13:38:34;;;;;;;8.55;1.05;;;12.90;69.00;;;;;;4706541;30;20049;-80
2021/03/28 13:41:18;;;;;;;5.82;0.80;;;12.90;68.40;;;;;;4706022;30;20048;-80
2021/03/28 13:43:45;;;;;;;6.82;1.15;;;12.90;68.50;;;;;;4719590;30;20066;-80
2021/03/28 13:46:19;;;;;;;12.95;1.30;;;12.90;68.60;;;;;;4762075;30;20111;-80
2021/03/28 13:48:49;;;;;;;7.50;1.13;;;12.90;68.40;;;;;;4762349;29;20051;-77
2021/03/28 13:51:18;;;;;;;9.05;1.05;;;12.90;68.50;;;;;;4773803;29;20623;-76
2021/03/28 13:53:53;;;;;;;8.52;0.82;;;12.90;68.50;;;;;;4759535;30;20043;-77
2021/03/28 13:56:51;;;;;;;9.85;0.88;;;12.90;68.80;;;;;;4774633;30;20044;-80
2021/03/28 13:59:20;;;;;;;8.68;1.02;;;12.90;68.90;;;;;;4760668;30;20276;-80
2021/03/28 14:01:49;;;;;;;11.05;1.48;;;12.90;69.10;;;;;;4760125;30;20052;-80
2021/03/28 14:04:41;;;;;;;7.75;1.70;;;12.90;69.30;;;;;;4760037;30;20062;-81
2021/03/28 14:07:30;;;;;;;7.43;1.75;;;12.90;69.40;;;;;;4760100;30;20060;-80
2021/03/28 14:10:06;;;;;;;8.90;1.33;;;13.00;69.40;;;;;;4775720;30;20491;-81
2021/03/28 14:12:32;;;;;;;8.43;1.58;;;12.90;69.50;;;;;;4744775;30;20044;-80
2021/03/28 14:15:21;;;;;;;11.05;0.90;;;12.90;69.60;;;;;;4761302;30;20469;-80
2021/03/28 14:18:15;;;;;;;8.48;1.00;;;12.90;69.50;;;;;;4745795;30;20036;-80
2021/03/28 14:20:51;;;;;;;8.82;1.20;;;12.90;69.80;;;;;;4751249;30;20043;-80
2021/03/28 14:23:28;;;;;;;5.63;0.85;;;12.90;70.10;;;;;;4774698;29;20051;-80
2021/03/28 14:26:17;;;;;;;8.02;1.48;;;12.90;70.30;;;;;;4768093;29;20043;-80